Time;durP1;ratioP1;P1;durP2;ratioP2;P2;SDS_P1;SDS_P2;PMS_P1;PMS_P2;Temp;Humidity;BMP_temperature;BMP_pressure;BME280_temperature;BME280_humidity;BME280_pressure;Samples;Min_cycle;Max_cycle;Signal;HPM_P1;HPM_P2
2023/10/12 00:01:59;;;;;;;7.03;4.55;;;;;;;15.90;nan;99626.09;4948032;28;20200;-75
2023/10/12 00:04:38;;;;;;;18.67;4.88;;;;;;;15.90;nan;99620.78;4943306;28;20252;-76
2023/10/12 00:07:10;;;;;;;5.60;4.30;;;;;;;15.88;nan;99620.09;4941292;28;20656;-75
2023/10/12 00:09:36;;;;;;;7.10;3.97;;;;;;;15.86;nan;99619.38;4944104;28;20847;-75
2023/10/12 00:12:07;;;;;;;4.90;4.00;;;;;;;15.84;nan;99618.66;4937191;28;20241;-75
2023/10/12 00:14:34;;;;;;;6.50;4.07;;;;;;;15.84;nan;99608.06;4943913;28;20221;-75
2023/10/12 00:16:59;;;;;;;6.93;3.85;;;;;;;15.85;nan;99610.59;4951141;28;20214;-75
2023/10/12 00:19:25;;;;;;;9.10;4.00;;;;;;;15.87;nan;99608.63;4940700;28;20238;-75
2023/10/12 00:22:02;;;;;;;8.73;4.53;;;;;;;15.89;nan;99619.94;4947260;28;20517;-75
2023/10/12 00:24:28;;;;;;;13.57;5.78;;;;;;;15.89;nan;99606.69;4947002;28;20203;-75
2023/10/12 00:26:54;;;;;;;8.40;4.73;;;;;;;15.90;nan;99611.06;4943035;28;20222;-75
2023/10/12 00:29:21;;;;;;;4.57;4.00;;;;;;;15.91;nan;99611.88;4927662;28;20219;-75
2023/10/12 00:31:48;;;;;;;6.85;4.30;;;;;;;15.89;nan;99613.81;4938878;28;20509;-76
2023/10/12 00:34:14;;;;;;;9.52;5.38;;;;;;;15.82;nan;99612.66;4947105;28;20201;-75
2023/10/12 00:36:41;;;;;;;6.70;4.63;;;;;;;15.72;nan;99604.66;4937454;28;20206;-75
2023/10/12 00:39:10;;;;;;;7.50;4.00;;;;;;;15.67;nan;99598.88;4938599;28;21101;-75
2023/10/12 00:41:44;;;;;;;7.78;4.75;;;;;;;15.66;nan;99587.47;4945800;28;20216;-75
2023/10/12 00:44:12;;;;;;;5.45;4.53;;;;;;;15.66;nan;99600.72;4941704;28;20224;-75
2023/10/12 00:46:41;;;;;;;6.22;5.05;;;;;;;15.66;nan;99591.91;4950686;28;20221;-75
2023/10/12 00:49:19;;;;;;;5.88;4.65;;;;;;;15.64;nan;99599.16;4947336;28;20215;-76
2023/10/12 00:51:53;;;;;;;9.77;4.07;;;;;;;15.59;nan;99591.59;4944702;28;20261;-75
2023/10/12 00:57:03;;;;;;;6.18;4.53;;;;;;;15.56;nan;99596.31;4944741;28;20802;-75
2023/10/12 00:59:31;;;;;;;7.10;3.63;;;;;;;15.51;nan;99580.81;4949631;28;20194;-75
2023/10/12 01:02:10;;;;;;;9.43;4.25;;;;;;;15.52;nan;99584.28;4945984;28;20211;-75
2023/10/12 01:04:36;;;;;;;7.13;4.45;;;;;;;15.51;nan;99579.97;4930544;28;20197;-75
2023/10/12 01:07:06;;;;;;;6.47;4.63;;;;;;;15.50;nan;99581.78;4941785;28;20437;-75
2023/10/12 01:09:43;;;;;;;6.05;4.63;;;;;;;15.48;nan;99578.44;4946218;28;20225;-75
2023/10/12 01:12:16;;;;;;;6.57;4.63;;;;;;;15.43;nan;99575.34;4952410;28;20231;-75
2023/10/12 01:14:44;;;;;;;6.32;4.80;;;;;;;15.39;nan;99580.06;4922096;28;20307;-75
2023/10/12 01:17:17;;;;;;;5.95;4.38;;;;;;;15.36;nan;99577.63;4956897;28;20218;-75
2023/10/12 01:19:45;;;;;;;9.75;4.80;;;;;;;15.36;nan;99590.03;4927086;28;20693;-75
2023/10/12 01:22:12;;;;;;;7.57;5.47;;;;;;;15.33;nan;99582.34;4944536;28;20798;-75
2023/10/12 01:25:19;;;;;;;6.13;4.88;;;;;;;15.31;nan;99581.63;4936968;28;20749;-75
2023/10/12 01:27:40;;;;;;;5.78;3.90;;;;;;;15.23;nan;99569.91;4919848;28;20417;-75
2023/10/12 01:30:16;;;;;;;4.70;3.28;;;;;;;15.17;nan;99567.75;4949264;28;20523;-75
2023/10/12 01:32:41;;;;;;;11.50;4.43;;;;;;;15.12;nan;99574.41;4942775;28;20200;-75
2023/10/12 01:35:10;;;;;;;4.97;3.80;;;;;;;15.04;nan;99577.66;4926049;28;20200;-75
2023/10/12 01:37:42;;;;;;;5.20;3.72;;;;;;;14.95;nan;99570.50;4949983;28;20234;-76
2023/10/12 01:40:10;;;;;;;7.07;4.57;;;;;;;14.88;nan;99575.47;4948410;28;20193;-76
2023/10/12 01:42:49;;;;;;;8.75;5.10;;;;;;;14.80;nan;99575.28;4943740;28;20398;-75
2023/10/12 01:45:24;;;;;;;6.47;4.25;;;;;;;14.74;nan;99568.69;4943877;28;20234;-75
2023/10/12 01:50:40;;;;;;;6.97;4.78;;;;;;;14.72;nan;99560.03;4948125;28;20668;-75
2023/10/12 01:55:46;;;;;;;6.20;4.10;;;;;;;14.72;nan;99560.03;4950151;28;20321;-75
2023/10/12 01:58:12;;;;;;;5.78;4.30;;;;;;;14.73;nan;99556.41;4924001;28;20216;-75
2023/10/12 02:00:39;;;;;;;9.80;4.47;;;;;;;14.72;nan;99554.75;4932061;28;20192;-76
2023/10/12 02:03:20;;;;;;;4.30;3.90;;;;;;;14.68;nan;99552.47;4948446;28;20481;-75
2023/10/12 02:06:28;;;;;;;6.40;4.10;;;;;;;14.65;nan;99558.84;4928215;28;20469;-75
2023/10/12 02:08:39;;;;;;;7.28;4.85;;;;;;;14.62;nan;99556.44;4945711;28;20205;-75
2023/10/12 02:11:09;;;;;;;7.72;4.40;;;;;;;14.63;nan;99549.34;4934661;28;20200;-75
2023/10/12 02:13:35;;;;;;;7.72;4.60;;;;;;;14.60;nan;99550.44;4946061;28;20208;-75
2023/10/12 02:16:02;;;;;;;6.63;3.83;;;;;;;14.58;nan;99549.72;4947254;28;20178;-75
2023/10/12 02:18:30;;;;;;;10.60;4.93;;;;;;;14.55;nan;99552.59;4927819;28;20208;-75
2023/10/12 02:23:53;;;;;;;6.65;4.40;;;;;;;14.59;nan;99549.59;4948420;28;20254;-75
2023/10/12 02:31:38;;;;;;;7.53;5.05;;;;;;;14.61;nan;99554.78;4940791;28;20192;-75
2023/10/12 02:34:03;;;;;;;10.77;6.43;;;;;;;14.62;nan;99550.31;4918796;28;20280;-75
2023/10/12 02:36:29;;;;;;;5.93;4.10;;;;;;;14.63;nan;99554.63;4944053;28;20410;-75
2023/10/12 02:39:10;;;;;;;9.77;4.80;;;;;;;14.62;nan;99564.38;4920479;28;20211;-76
2023/10/12 02:41:42;;;;;;;7.85;5.05;;;;;;;14.60;nan;99561.84;4944246;28;20254;-76
2023/10/12 02:44:18;;;;;;;5.97;4.60;;;;;;;14.59;nan;99564.63;4944046;28;20692;-76
2023/10/12 02:49:29;;;;;;;8.73;5.20;;;;;;;14.57;nan;99571.84;4932460;23;20677;-75
2023/10/12 02:51:54;;;;;;;6.43;4.37;;;;;;;14.53;nan;99565.97;4925060;28;20659;-75
2023/10/12 02:54:25;;;;;;;6.17;4.60;;;;;;;14.52;nan;99577.47;4911793;28;20201;-75
2023/10/12 02:56:56;;;;;;;8.35;5.88;;;;;;;14.52;nan;99579.25;4933387;28;20503;-75
2023/10/12 02:59:25;;;;;;;5.60;4.00;;;;;;;14.52;nan;99584.53;4909312;28;20206;-75
2023/10/12 03:02:07;;;;;;;10.40;5.47;;;;;;;14.51;nan;99575.78;4932717;28;20576;-75
2023/10/12 03:04:38;;;;;;;13.25;11.93;;;;;;;14.51;nan;99580.22;4938550;28;20208;-75
2023/10/12 03:07:11;;;;;;;6.03;4.40;;;;;;;14.50;nan;99574.13;4937095;28;20262;-75
2023/10/12 03:09:43;;;;;;;7.30;4.68;;;;;;;14.50;nan;99575.88;4934094;28;20218;-75
2023/10/12 03:12:09;;;;;;;10.10;5.85;;;;;;;14.48;nan;99568.09;4938973;28;20206;-75
2023/10/12 03:14:40;;;;;;;8.55;5.15;;;;;;;14.50;nan;99573.25;4917317;28;20366;-76
2023/10/12 03:17:09;;;;;;;6.88;4.13;;;;;;;14.50;nan;99573.25;4934508;28;20200;-76
2023/10/12 03:19:39;;;;;;;6.00;4.85;;;;;;;14.49;nan;99568.94;4934786;28;20994;-76
2023/10/12 03:22:19;;;;;;;8.02;4.70;;;;;;;14.48;nan;99567.28;4934109;28;20729;-77
2023/10/12 03:24:45;;;;;;;6.50;5.10;;;;;;;14.45;nan;99562.25;4936116;28;20911;-76
2023/10/12 03:27:11;;;;;;;7.63;4.60;;;;;;;14.45;nan;99563.06;4935266;28;20264;-76
2023/10/12 03:29:43;;;;;;;7.70;4.38;;;;;;;14.42;nan;99563.31;4916792;28;20626;-76
2023/10/12 03:32:16;;;;;;;6.45;4.80;;;;;;;14.43;nan;99569.44;4934393;28;20278;-76
2023/10/12 03:37:14;;;;;;;7.85;5.07;;;;;;;14.46;nan;99572.66;4928251;28;20640;-76
2023/10/12 03:52:27;;;;;;;7.93;4.75;;;;;;;14.48;nan;99560.19;4938080;28;20200;-76
2023/10/12 03:57:28;;;;;;;7.85;5.05;;;;;;;14.47;nan;99555.00;4936373;28;20715;-78
2023/10/12 04:00:25;;;;;;;7.63;5.25;;;;;;;14.46;nan;99554.16;4938110;28;20260;-78
2023/10/12 04:02:53;;;;;;;10.95;5.68;;;;;;;14.47;nan;99558.47;4935487;28;20216;-77
2023/10/12 04:08:17;;;;;;;7.82;6.35;;;;;;;14.47;nan;99555.00;4937150;28;20773;-77
2023/10/12 04:19:03;;;;;;;4.68;4.28;;;;;;;14.25;nan;99550.59;4935803;28;20750;-76
2023/10/12 04:21:33;;;;;;;6.57;4.18;;;;;;;14.25;nan;99546.16;4923636;28;23227;-76
2023/10/12 04:26:38;;;;;;;11.70;5.50;;;;;;;14.22;nan;99562.25;4935736;28;20560;-77
2023/10/12 04:29:08;;;;;;;7.43;5.15;;;;;;;14.16;nan;99565.38;4924884;28;20463;-76
2023/10/12 04:31:48;;;;;;;6.60;5.15;;;;;;;14.06;nan;99570.53;4940811;28;20493;-76
2023/10/12 04:34:16;;;;;;;5.25;4.53;;;;;;;13.91;nan;99567.31;4939166;28;20201;-77
2023/10/12 04:41:38;;;;;;;6.70;4.65;;;;;;;13.69;nan;99576.06;4937874;28;20239;-78
2023/10/12 04:46:51;;;;;;;5.97;4.07;;;;;;;13.65;nan;99582.53;4939132;28;20224;-78
2023/10/12 04:51:49;;;;;;;5.07;4.57;;;;;;;13.69;nan;99585.75;4940133;28;20659;-76
2023/10/12 04:54:23;;;;;;;8.57;4.00;;;;;;;13.71;nan;99589.13;4938384;28;20628;-78
2023/10/12 04:59:28;;;;;;;5.97;4.38;;;;;;;13.77;nan;99590.47;4934819;28;20644;-76
2023/10/12 05:09:50;;;;;;;5.45;4.53;;;;;;;13.76;nan;99584.34;4940100;28;20589;-79
2023/10/12 05:12:25;;;;;;;5.95;5.40;;;;;;;13.75;nan;99580.03;4958052;28;20204;-78
2023/10/12 05:14:55;;;;;;;12.98;9.30;;;;;;;13.76;nan;99583.50;4942203;28;20243;-80
2023/10/12 05:17:24;;;;;;;9.52;7.18;;;;;;;13.77;nan;99578.13;4937877;28;20224;-81
2023/10/12 05:19:53;;;;;;;11.07;7.65;;;;;;;13.81;nan;99576.91;4941192;28;20580;-80
2023/10/12 05:22:19;;;;;;;14.63;5.65;;;;;;;13.85;nan;99588.06;4941240;28;20212;-78
2023/10/12 05:24:46;;;;;;;8.57;6.35;;;;;;;13.89;nan;99581.59;4943982;28;20243;-80
2023/10/12 05:27:28;;;;;;;10.18;6.63;;;;;;;13.93;nan;99590.94;4942501;28;20595;-81
2023/10/12 05:29:59;;;;;;;9.07;6.38;;;;;;;13.99;nan;99595.78;4944144;28;20814;-78
2023/10/12 05:32:37;;;;;;;12.07;6.45;;;;;;;14.03;nan;99599.00;4941907;28;20270;-77
2023/10/12 05:35:06;;;;;;;6.38;4.75;;;;;;;14.06;nan;99594.31;4936392;28;20615;-79
2023/10/12 05:37:38;;;;;;;8.37;6.50;;;;;;;14.14;nan;99601.66;4938720;28;21441;-78
2023/10/12 05:40:10;;;;;;;9.95;6.30;;;;;;;14.18;nan;99600.47;4940945;28;20478;-78
2023/10/12 05:42:39;;;;;;;7.88;6.70;;;;;;;14.23;nan;99603.59;4941414;28;20241;-80
2023/10/12 05:45:21;;;;;;;8.65;5.75;;;;;;;14.29;nan;99595.16;4942344;28;20225;-81
2023/10/12 05:47:51;;;;;;;8.40;6.72;;;;;;;14.33;nan;99601.88;4939245;28;20757;-78
2023/10/12 05:50:16;;;;;;;8.50;6.18;;;;;;;14.39;nan;99598.75;4939187;28;20259;-79
2023/10/12 05:52:42;;;;;;;8.63;5.17;;;;;;;14.45;nan;99607.16;4954827;28;20643;-79
2023/10/12 05:55:21;;;;;;;6.60;5.13;;;;;;;14.49;nan;99605.94;4941514;28;20185;-80
2023/10/12 05:57:48;;;;;;;7.97;4.97;;;;;;;14.54;nan;99612.56;4942326;28;20521;-78
2023/10/12 06:00:35;;;;;;;5.35;3.88;;;;;;;14.59;nan;99617.50;4941977;28;20751;-78
2023/10/12 06:03:00;;;;;;;9.73;4.65;;;;;;;14.64;nan;99622.44;4943534;28;20231;-78
2023/10/12 06:05:25;;;;;;;10.50;4.23;;;;;;;14.73;nan;99625.16;4943927;28;20868;-78
2023/10/12 06:08:00;;;;;;;6.87;5.33;;;;;;;14.88;nan;99616.94;4940171;28;20299;-77
2023/10/12 06:10:27;;;;;;;5.28;4.05;;;;;;;15.05;nan;99619.06;4939920;28;20205;-78
2023/10/12 06:12:53;;;;;;;6.30;3.47;;;;;;;15.24;nan;99618.38;4942260;28;20328;-80
2023/10/12 06:15:22;;;;;;;6.63;5.80;;;;;;;15.45;nan;99610.47;4941443;28;20211;-78
2023/10/12 06:17:49;;;;;;;4.72;3.63;;;;;;;15.72;nan;99617.91;4939665;28;20502;-78
2023/10/12 06:20:29;;;;;;;7.10;3.70;;;;;;;15.96;nan;99617.63;4939461;28;20282;-80
2023/10/12 06:22:55;;;;;;;6.38;3.92;;;;;;;16.19;nan;99620.94;4940088;28;20305;-77
2023/10/12 06:25:21;;;;;;;5.83;3.20;;;;;;;16.41;nan;99616.41;4943007;28;20746;-80
2023/10/12 06:27:49;;;;;;;4.95;3.53;;;;;;;16.60;nan;99627.06;4942951;28;20217;-79
2023/10/12 06:30:17;;;;;;;6.47;3.65;;;;;;;16.63;nan;99625.94;4946712;28;20223;-78
2023/10/12 06:32:46;;;;;;;6.95;4.10;;;;;;;16.45;nan;99628.44;4944669;28;20206;-80
2023/10/12 06:35:13;;;;;;;6.10;3.85;;;;;;;16.30;nan;99625.28;4942413;28;20628;-80
2023/10/12 06:43:57;;;;;;;7.95;3.90;;;;;;;16.15;nan;99630.13;4940370;28;21768;-79
2023/10/12 06:45:48;;;;;;;11.50;4.22;;;;;;;16.28;nan;99636.06;4936856;28;20859;-78
2023/10/12 06:51:02;;;;;;;7.40;4.40;;;;;;;16.81;nan;99634.97;4937165;28;20288;-79
2023/10/12 06:53:35;;;;;;;10.20;3.45;;;;;;;17.16;nan;99630.94;4939175;28;20203;-78
2023/10/12 06:58:45;;;;;;;10.77;4.97;;;;;;;17.79;nan;99636.66;4937890;28;21118;-79
2023/10/12 07:01:27;;;;;;;6.53;5.60;;;;;;;18.05;nan;99628.06;4940658;28;20566;-76
2023/10/12 07:03:53;;;;;;;8.40;4.53;;;;;;;18.28;nan;99625.84;4936633;28;20794;-75
2023/10/12 07:06:18;;;;;;;9.10;5.80;;;;;;;18.46;nan;99636.56;4937623;28;20862;-76
2023/10/12 07:08:46;;;;;;;5.73;3.93;;;;;;;18.65;nan;99635.63;4940806;28;20456;-75
2023/10/12 07:11:17;;;;;;;9.60;4.20;;;;;;;18.84;nan;99638.19;4935632;28;20208;-76
2023/10/12 07:13:45;;;;;;;5.80;3.90;;;;;;;19.06;nan;99634.25;4930236;28;20858;-76
2023/10/12 07:16:20;;;;;;;7.30;4.70;;;;;;;19.29;nan;99637.31;4926180;28;20460;-76
2023/10/12 07:18:49;;;;;;;6.53;4.50;;;;;;;19.51;nan;99633.34;4935383;28;20459;-76
2023/10/12 07:21:21;;;;;;;6.37;3.90;;;;;;;19.74;nan;99633.72;4932992;28;20508;-76
2023/10/12 07:23:52;;;;;;;10.50;6.10;;;;;;;19.97;nan;99636.69;4935017;28;20469;-76
2023/10/12 07:26:22;;;;;;;6.33;4.40;;;;;;;20.22;nan;99637.66;4935646;28;20473;-77
2023/10/12 07:28:49;;;;;;;9.77;4.83;;;;;;;20.44;nan;99620.28;4937181;28;20454;-75
2023/10/12 07:39:21;;;;;;;5.30;3.57;;;;;;;21.36;nan;99596.25;4933632;28;20547;-76
2023/10/12 07:42:00;;;;;;;5.80;3.77;;;;;;;21.62;nan;99606.78;4938826;28;20462;-76
2023/10/12 07:44:28;;;;;;;8.60;4.67;;;;;;;21.89;nan;99600.22;4936654;28;21167;-77
2023/10/12 07:46:57;;;;;;;9.63;5.23;;;;;;;22.12;nan;99610.22;4933040;28;20998;-76
2023/10/12 07:52:22;;;;;;;6.53;5.30;;;;;;;22.45;nan;99611.78;4934255;28;20538;-76
2023/10/12 07:54:57;;;;;;;8.87;5.57;;;;;;;22.57;nan;99614.91;4935804;28;20470;-76
2023/10/12 07:57:23;;;;;;;6.20;4.20;;;;;;;22.62;nan;99612.53;4930868;28;20441;-76
2023/10/12 08:02:32;;;;;;;5.63;4.00;;;;;;;22.64;nan;99625.75;4931400;28;20435;-76
2023/10/12 08:04:59;;;;;;;12.97;6.70;;;;;;;22.64;nan;99631.09;4935188;28;20504;-76
2023/10/12 08:07:26;;;;;;;8.17;4.70;;;;;;;22.70;nan;99625.03;4934819;28;20446;-77
2023/10/12 08:09:53;;;;;;;9.20;5.77;;;;;;;22.80;nan;99625.66;4939039;28;20472;-76
2023/10/12 08:12:25;;;;;;;12.97;6.73;;;;;;;23.34;nan;99627.50;4948861;28;20991;-77
2023/10/12 08:14:54;;;;;;;10.33;6.77;;;;;;;24.25;nan;99625.66;4937463;28;20430;-78
2023/10/12 08:17:29;;;;;;;5.57;4.80;;;;;;;25.12;nan;99624.84;4933139;28;20463;-77
2023/10/12 08:20:12;;;;;;;10.87;7.30;;;;;;;25.99;nan;99616.50;4934213;28;21066;-77
2023/10/12 08:22:38;;;;;;;8.60;4.37;;;;;;;26.80;nan;99612.34;4932594;28;20450;-76
2023/10/12 08:25:04;;;;;;;4.57;3.87;;;;;;;27.28;nan;99609.56;4935547;28;20943;-77
2023/10/12 08:27:43;;;;;;;8.33;5.80;;;;;;;27.54;nan;99614.13;4933175;28;22568;-77
2023/10/12 08:30:22;;;;;;;5.33;4.83;;;;;;;27.89;nan;99590.47;4937382;28;20490;-77
2023/10/12 08:32:58;;;;;;;8.13;3.50;;;;;;;28.12;nan;99597.28;4936833;28;21226;-76
2023/10/12 08:35:38;;;;;;;8.10;4.47;;;;;;;28.24;nan;99596.38;4935776;28;20439;-77
2023/10/12 08:38:11;;;;;;;7.23;5.07;;;;;;;28.56;nan;99603.78;4940563;28;21122;-77
2023/10/12 08:40:48;;;;;;;5.53;3.77;;;;;;;28.85;nan;99603.22;4934247;28;20463;-77
2023/10/12 08:43:34;;;;;;;8.53;4.13;;;;;;;29.04;nan;99604.16;4938951;28;20501;-77
2023/10/12 08:45:58;;;;;;;7.00;4.03;;;;;;;29.22;nan;99600.72;4937360;28;20973;-77
2023/10/12 08:48:26;;;;;;;8.77;5.17;;;;;;;28.99;nan;99593.16;4934371;28;20519;-77
2023/10/12 08:51:09;;;;;;;5.50;3.30;;;;;;;28.84;nan;99595.31;4936507;28;20285;-76
2023/10/12 08:53:39;;;;;;;6.13;3.90;;;;;;;28.83;nan;99599.91;4938524;28;20463;-76
2023/10/12 08:56:08;;;;;;;4.53;3.50;;;;;;;28.80;nan;99605.75;4937528;28;20460;-76
2023/10/12 08:58:48;;;;;;;7.60;4.40;;;;;;;28.76;nan;99609.94;4937396;28;20517;-76
2023/10/12 09:01:22;;;;;;;5.37;4.23;;;;;;;28.82;nan;99603.66;4939254;28;21118;-77
2023/10/12 09:03:53;;;;;;;13.03;4.00;;;;;;;28.74;nan;99609.31;4938673;28;20459;-77
2023/10/12 09:06:53;;;;;;;8.80;4.20;;;;;;;28.63;nan;99612.69;4938570;28;20547;-76
2023/10/12 09:09:48;;;;;;;7.40;4.20;;;;;;;28.56;nan;99622.72;4926993;28;20459;-77
2023/10/12 09:12:01;;;;;;;4.80;3.73;;;;;;;28.56;nan;99622.72;4933441;28;21000;-76
2023/10/12 09:14:26;;;;;;;6.90;3.93;;;;;;;28.60;nan;99621.25;4939545;28;20467;-76
2023/10/12 09:16:53;;;;;;;4.57;3.37;;;;;;;28.59;nan;99609.59;4940382;28;20216;-76
2023/10/12 09:19:28;;;;;;;5.60;4.03;;;;;;;28.47;nan;99614.03;4940847;28;20466;-77
2023/10/12 09:21:59;;;;;;;10.10;4.10;;;;;;;28.20;nan;99600.56;4940891;28;20613;-76
2023/10/12 09:24:28;;;;;;;4.90;3.17;;;;;;;27.94;nan;99612.25;4953903;28;20600;-76
2023/10/12 09:27:02;;;;;;;10.63;3.93;;;;;;;27.70;nan;99611.00;4944994;28;21070;-76
2023/10/12 09:29:28;;;;;;;5.17;3.40;;;;;;;27.45;nan;99631.56;4938269;28;20525;-77
2023/10/12 09:34:43;;;;;;;6.10;3.40;;;;;;;26.95;nan;99626.50;4944190;28;20463;-76
2023/10/12 09:37:16;;;;;;;8.10;3.97;;;;;;;26.72;nan;99609.84;4941483;28;20670;-76
2023/10/12 09:39:41;;;;;;;7.73;3.93;;;;;;;26.51;nan;99611.63;4944733;28;20553;-77
2023/10/12 09:42:14;;;;;;;5.30;3.93;;;;;;;26.42;nan;99605.56;4942829;28;20460;-78
2023/10/12 09:44:40;;;;;;;11.87;3.73;;;;;;;26.42;nan;99618.19;4938482;28;20211;-78
2023/10/12 09:47:15;;;;;;;3.67;3.20;;;;;;;26.43;nan;99623.38;4942619;28;20480;-78
2023/10/12 09:49:53;;;;;;;9.77;3.43;;;;;;;26.52;nan;99616.00;4940664;28;20494;-79
2023/10/12 09:52:23;;;;;;;11.43;5.10;;;;;;;26.54;nan;99613.09;4946383;28;20904;-78
2023/10/12 09:54:55;;;;;;;8.20;3.67;;;;;;;26.59;nan;99619.53;4937826;28;20460;-78
2023/10/12 09:57:25;;;;;;;8.57;4.70;;;;;;;26.65;nan;99612.50;4939132;28;20800;-78
2023/10/12 10:00:01;;;;;;;5.23;3.80;;;;;;;26.74;nan;99605.91;4920117;28;20845;-78
2023/10/12 10:02:33;;;;;;;3.93;3.60;;;;;;;26.77;nan;99605.50;4940538;28;20471;-78
2023/10/12 10:05:01;;;;;;;5.23;3.87;;;;;;;26.78;nan;99609.84;4936462;28;20977;-78
2023/10/12 10:07:38;;;;;;;6.80;4.53;;;;;;;26.71;nan;99614.41;4941153;28;20471;-78
2023/10/12 10:10:05;;;;;;;4.73;3.70;;;;;;;26.77;nan;99608.19;4940349;28;22178;-78
2023/10/12 10:12:42;;;;;;;8.83;4.63;;;;;;;26.88;nan;99609.47;4940034;28;20471;-78
2023/10/12 10:15:16;;;;;;;7.00;3.53;;;;;;;26.92;nan;99608.88;4941949;28;20839;-79
2023/10/12 10:17:53;;;;;;;8.23;4.27;;;;;;;26.95;nan;99606.78;4943867;28;20707;-80
2023/10/12 10:22:56;;;;;;;5.17;3.40;;;;;;;26.77;nan;99615.47;4949531;28;20910;-80
2023/10/12 10:25:23;;;;;;;9.10;5.60;;;;;;;26.70;nan;99613.56;4948903;28;20764;-80
2023/10/12 10:27:49;;;;;;;6.20;3.97;;;;;;;26.62;nan;99607.53;4944160;28;20583;-79
2023/10/12 10:30:26;;;;;;;6.03;4.07;;;;;;;26.62;nan;99602.97;4949411;28;20532;-80
2023/10/12 10:33:12;;;;;;;5.30;3.47;;;;;;;26.66;nan;99598.84;4945331;28;20205;-79
2023/10/12 10:35:54;;;;;;;5.93;4.40;;;;;;;26.75;nan;99596.78;4947452;28;20586;-79
2023/10/12 10:38:19;;;;;;;6.20;4.33;;;;;;;26.85;nan;99601.81;4950570;28;21353;-79
2023/10/12 10:40:48;;;;;;;7.33;3.83;;;;;;;26.98;nan;99596.44;4950062;28;20626;-78
2023/10/12 10:43:16;;;;;;;7.93;3.90;;;;;;;27.16;nan;99595.81;4944364;28;20417;-79
2023/10/12 10:45:53;;;;;;;6.60;4.03;;;;;;;27.30;nan;99588.59;4950777;28;20532;-80
2023/10/12 10:48:19;;;;;;;5.93;4.50;;;;;;;27.38;nan;99577.59;4950275;28;20588;-79
2023/10/12 10:50:54;;;;;;;7.00;3.87;;;;;;;27.35;nan;99578.03;4950333;28;20492;-80
2023/10/12 10:53:20;;;;;;;10.60;3.77;;;;;;;27.24;nan;99575.97;4953609;28;20216;-78
2023/10/12 10:55:50;;;;;;;8.40;4.00;;;;;;;27.24;nan;99573.25;4951116;28;20452;-79
2023/10/12 10:58:18;;;;;;;6.57;5.37;;;;;;;27.19;nan;99581.13;4951596;28;20193;-79
2023/10/12 11:00:56;;;;;;;7.33;4.60;;;;;;;27.13;nan;99575.50;4947654;28;20465;-79
2023/10/12 11:03:22;;;;;;;6.43;3.13;;;;;;;27.09;nan;99565.34;4942862;28;20571;-79
2023/10/12 11:05:48;;;;;;;7.20;3.47;;;;;;;27.13;nan;99582.75;4946138;28;20448;-79
2023/10/12 11:08:26;;;;;;;4.70;3.47;;;;;;;27.20;nan;99566.63;4949796;28;20475;-80
2023/10/12 11:13:38;;;;;;;6.20;3.60;;;;;;;27.33;nan;99561.25;4946194;28;20573;-79
2023/10/12 11:18:51;;;;;;;6.07;3.60;;;;;;;27.38;nan;99571.38;4942259;28;20543;-80
2023/10/12 11:21:18;;;;;;;7.63;3.77;;;;;;;27.42;nan;99572.66;4946525;28;20451;-79
2023/10/12 11:23:46;;;;;;;6.73;4.40;;;;;;;27.42;nan;99573.47;4943044;28;20505;-79
2023/10/12 11:26:22;;;;;;;9.83;4.37;;;;;;;27.44;nan;99571.41;4926021;28;20483;-79
2023/10/12 11:29:03;;;;;;;10.67;4.63;;;;;;;27.52;nan;99560.41;4942858;28;20498;-79
2023/10/12 11:31:31;;;;;;;6.40;4.30;;;;;;;27.64;nan;99565.16;4939683;28;20471;-80
2023/10/12 11:33:58;;;;;;;4.73;3.23;;;;;;;27.68;nan;99558.28;4940835;28;20507;-80
2023/10/12 11:36:25;;;;;;;5.90;3.70;;;;;;;27.73;nan;99561.19;4943026;28;20491;-79
2023/10/12 11:38:59;;;;;;;4.70;3.57;;;;;;;27.85;nan;99556.84;4941901;28;20540;-80
2023/10/12 11:41:25;;;;;;;5.30;3.97;;;;;;;27.95;nan;99559.94;4940883;28;20459;-80
2023/10/12 11:43:57;;;;;;;7.80;3.57;;;;;;;28.04;nan;99565.09;4943744;28;20546;-80
2023/10/12 11:46:24;;;;;;;4.87;3.50;;;;;;;28.15;nan;99567.16;4941070;28;20476;-80
2023/10/12 11:49:10;;;;;;;5.57;3.83;;;;;;;28.26;nan;99565.66;4946731;28;20483;-80
2023/10/12 11:52:15;;;;;;;6.60;3.77;;;;;;;28.24;nan;99555.88;4943704;28;20457;-79
2023/10/12 11:54:33;;;;;;;5.50;4.10;;;;;;;28.17;nan;99565.06;4943859;28;20464;-80
2023/10/12 11:56:58;;;;;;;7.17;4.80;;;;;;;28.14;nan;99560.06;4945299;28;20524;-79
2023/10/12 11:59:31;;;;;;;6.40;3.53;;;;;;;28.17;nan;99555.09;4946200;28;20977;-79
2023/10/12 12:02:00;;;;;;;6.77;4.47;;;;;;;28.21;nan;99558.19;4950849;28;20597;-79
2023/10/12 12:04:38;;;;;;;10.43;4.03;;;;;;;28.26;nan;99555.66;4939646;28;20842;-78
2023/10/12 12:07:05;;;;;;;5.63;4.20;;;;;;;28.30;nan;99554.22;4938626;28;20900;-78
2023/10/12 12:09:31;;;;;;;4.23;3.67;;;;;;;28.31;nan;99542.34;4937049;28;20472;-78
2023/10/12 12:11:57;;;;;;;4.10;3.03;;;;;;;28.32;nan;99546.69;4928761;28;20799;-78
2023/10/12 12:14:22;;;;;;;7.67;3.40;;;;;;;28.37;nan;99546.06;4943298;28;20695;-78
2023/10/12 12:16:48;;;;;;;8.47;3.77;;;;;;;28.34;nan;99539.22;4928664;28;20535;-78
2023/10/12 12:19:19;;;;;;;7.07;3.50;;;;;;;28.33;nan;99534.88;4937702;28;20471;-78
2023/10/12 12:21:45;;;;;;;9.23;4.53;;;;;;;28.26;nan;99533.25;4942948;28;20200;-78
2023/10/12 12:26:46;;;;;;;5.97;3.47;;;;;;;28.17;nan;99540.75;4943191;28;20834;-78
2023/10/12 12:29:11;;;;;;;5.27;3.40;;;;;;;28.13;nan;99531.41;4936283;28;21009;-77
2023/10/12 12:31:38;;;;;;;4.70;3.00;;;;;;;28.09;nan;99535.59;4938607;28;20775;-78
2023/10/12 12:34:06;;;;;;;5.87;3.53;;;;;;;27.99;nan;99527.94;4940717;28;20204;-78
2023/10/12 12:36:33;;;;;;;8.63;4.53;;;;;;;27.95;nan;99526.69;4942400;28;20438;-78
2023/10/12 12:39:00;;;;;;;9.27;6.47;;;;;;;27.88;nan;99515.94;4940765;28;20211;-78
2023/10/12 12:41:28;;;;;;;7.13;4.43;;;;;;;27.83;nan;99512.22;4940916;28;20805;-78
2023/10/12 12:43:53;;;;;;;5.73;5.00;;;;;;;27.75;nan;99500.56;4938904;28;21126;-78
2023/10/12 12:46:19;;;;;;;7.27;4.23;;;;;;;27.72;nan;99506.38;4936516;28;20472;-78
2023/10/12 12:48:50;;;;;;;7.33;5.57;;;;;;;27.69;nan;99495.19;4932943;28;20201;-78
2023/10/12 12:51:17;;;;;;;8.13;5.60;;;;;;;27.65;nan;99497.47;4937731;28;20940;-78
2023/10/12 12:53:46;;;;;;;10.47;4.73;;;;;;;27.65;nan;99502.03;4934689;28;20548;-78
2023/10/12 12:56:15;;;;;;;5.73;2.83;;;;;;;27.66;nan;99501.84;4941003;28;20492;-78
2023/10/12 12:58:48;;;;;;;4.23;3.10;;;;;;;27.64;nan;99512.00;4934838;28;20457;-78
2023/10/12 13:01:17;;;;;;;6.90;4.20;;;;;;;27.62;nan;99502.47;4936091;28;20459;-78
2023/10/12 13:03:43;;;;;;;4.90;4.10;;;;;;;27.58;nan;99492.09;4935219;28;20499;-78
2023/10/12 13:06:08;;;;;;;6.17;3.27;;;;;;;27.54;nan;99487.31;4940934;28;20742;-78
2023/10/12 13:08:35;;;;;;;9.73;6.40;;;;;;;27.49;nan;99490.69;4939354;28;20813;-78
2023/10/12 13:11:00;;;;;;;7.20;4.60;;;;;;;27.48;nan;99489.00;4937923;28;20244;-78
2023/10/12 13:13:26;;;;;;;4.90;3.50;;;;;;;27.50;nan;99491.50;4938433;28;20804;-78
2023/10/12 13:15:51;;;;;;;8.20;4.37;;;;;;;27.49;nan;99479.88;4935847;28;20775;-78
2023/10/12 13:18:16;;;;;;;7.63;4.30;;;;;;;27.56;nan;99485.25;4937976;28;20185;-78
2023/10/12 13:20:49;;;;;;;5.70;3.37;;;;;;;27.61;nan;99487.31;4939013;28;20613;-78
2023/10/12 13:23:17;;;;;;;5.63;4.30;;;;;;;27.62;nan;99484.41;4942835;28;20209;-78
2023/10/12 13:25:43;;;;;;;5.53;3.67;;;;;;;27.66;nan;99490.22;4935808;28;20467;-78
2023/10/12 13:28:10;;;;;;;5.10;3.87;;;;;;;27.69;nan;99484.41;4933321;28;20484;-78
2023/10/12 13:30:36;;;;;;;4.57;3.47;;;;;;;27.74;nan;99493.50;4941444;28;20217;-78
2023/10/12 13:33:05;;;;;;;7.83;3.23;;;;;;;27.76;nan;99485.19;4939114;28;21137;-78
2023/10/12 13:38:09;;;;;;;22.20;11.80;;;;;;;27.77;nan;99479.59;4942151;28;20486;-78
2023/10/12 13:40:39;;;;;;;14.20;9.03;;;;;;;27.78;nan;99475.00;4939127;28;20464;-78
2023/10/12 13:43:07;;;;;;;8.67;5.50;;;;;;;27.79;nan;99474.00;4938299;28;20467;-78
2023/10/12 13:45:34;;;;;;;5.33;4.50;;;;;;;27.81;nan;99461.13;4941104;28;20599;-78
2023/10/12 13:47:59;;;;;;;5.83;4.13;;;;;;;27.85;nan;99466.94;4943510;28;20596;-78
2023/10/12 13:50:25;;;;;;;5.47;4.07;;;;;;;27.89;nan;99463.59;4941135;28;20828;-78
2023/10/12 13:52:50;;;;;;;7.73;5.00;;;;;;;27.94;nan;99454.84;4937929;28;20452;-79
2023/10/12 13:55:16;;;;;;;8.60;4.10;;;;;;;27.94;nan;99461.06;4942711;28;20311;-78
2023/10/12 13:57:51;;;;;;;8.67;4.33;;;;;;;27.92;nan;99460.47;4942131;28;20209;-78